Time;durP1;ratioP1;P1;durP2;ratioP2;P2;SDS_P1;SDS_P2;PMS_P1;PMS_P2;Temp;Humidity;BMP_temperature;BMP_pressure;BME280_temperature;BME280_humidity;BME280_pressure;Samples;Min_cycle;Max_cycle;Signal;HPM_P1;HPM_P2
2023/04/26 00:01:08;;;;;;;3.58;2.50;;;;;;;;;;6240051;28;20053;-72
2023/04/26 00:04:10;;;;;;;6.57;3.60;;;;;;;;;;6242388;28;20054;-73
2023/04/26 00:07:14;;;;;;;4.85;3.40;;;;;;;;;;6240191;28;20365;-73
2023/04/26 00:10:16;;;;;;;7.82;3.10;;;;;;;;;;6238004;28;20091;-74
2023/04/26 00:13:30;;;;;;;4.75;3.75;;;;;;;;;;6241276;28;20065;-72
2023/04/26 00:16:32;;;;;;;5.55;3.85;;;;;;;;;;6242966;28;20053;-73
2023/04/26 00:19:34;;;;;;;5.57;3.55;;;;;;;;;;6242081;28;20045;-73
2023/04/26 00:22:37;;;;;;;4.50;3.20;;;;;;;;;;6242233;28;20052;-73
2023/04/26 00:25:39;;;;;;;4.30;3.77;;;;;;;;;;6240784;28;20053;-73
2023/04/26 00:28:41;;;;;;;5.18;3.05;;;;;;;;;;6241907;28;20057;-73
2023/04/26 00:31:42;;;;;;;5.05;3.45;;;;;;;;;;6238269;28;20054;-73
2023/04/26 00:34:44;;;;;;;5.05;3.47;;;;;;;;;;6240418;28;20152;-73
2023/04/26 00:37:48;;;;;;;5.63;3.58;;;;;;;;;;6242707;28;20060;-72
2023/04/26 00:40:50;;;;;;;5.10;3.30;;;;;;;;;;6239293;28;20053;-74
2023/04/26 00:43:52;;;;;;;5.00;3.50;;;;;;;;;;6239722;28;20113;-74
2023/04/26 00:46:55;;;;;;;4.72;3.33;;;;;;;;;;6238640;28;20046;-73
2023/04/26 00:49:57;;;;;;;5.22;3.22;;;;;;;;;;6241012;28;20058;-74
2023/04/26 00:53:01;;;;;;;4.45;2.75;;;;;;;;;;6245205;28;20046;-73
2023/04/26 00:56:05;;;;;;;4.72;3.30;;;;;;;;;;6243273;28;20218;-74
2023/04/26 00:59:07;;;;;;;5.00;3.33;;;;;;;;;;6242229;28;20104;-74
2023/04/26 01:02:09;;;;;;;4.55;3.22;;;;;;;;;;6242783;28;20151;-73
2023/04/26 01:05:11;;;;;;;3.65;2.88;;;;;;;;;;6238117;28;20265;-74
2023/04/26 01:08:16;;;;;;;5.13;2.90;;;;;;;;;;6237657;28;20057;-74
2023/04/26 01:11:21;;;;;;;5.10;3.55;;;;;;;;;;6240345;28;20360;-73
2023/04/26 01:14:23;;;;;;;4.40;3.50;;;;;;;;;;6244545;28;20045;-73
2023/04/26 01:17:25;;;;;;;4.50;3.03;;;;;;;;;;6241933;28;20288;-73
2023/04/26 01:20:27;;;;;;;4.47;2.70;;;;;;;;;;6240709;28;20333;-73
2023/04/26 01:23:30;;;;;;;6.85;3.17;;;;;;;;;;6240665;28;20221;-73
2023/04/26 01:26:36;;;;;;;3.43;2.20;;;;;;;;;;6238167;28;20061;-73
2023/04/26 01:29:37;;;;;;;5.15;2.00;;;;;;;;;;6240624;28;20211;-73
2023/04/26 01:32:39;;;;;;;3.70;2.53;;;;;;;;;;6236098;28;20053;-73
2023/04/26 01:35:41;;;;;;;3.80;2.55;;;;;;;;;;6238799;28;20093;-73
2023/04/26 01:38:44;;;;;;;6.60;3.50;;;;;;;;;;6237949;28;20481;-74
2023/04/26 01:41:46;;;;;;;7.68;3.35;;;;;;;;;;6239417;28;20053;-73
2023/04/26 01:44:48;;;;;;;6.78;3.50;;;;;;;;;;6240034;28;20058;-73
2023/04/26 01:47:50;;;;;;;5.85;3.65;;;;;;;;;;6240531;28;20045;-73
2023/04/26 01:50:52;;;;;;;6.40;3.30;;;;;;;;;;6237305;28;20053;-73
2023/04/26 01:54:10;;;;;;;5.70;3.83;;;;;;;;;;6237464;28;20072;-74
2023/04/26 01:57:11;;;;;;;5.95;4.13;;;;;;;;;;6237872;28;20350;-73
2023/04/26 02:00:14;;;;;;;6.78;4.47;;;;;;;;;;6239693;28;20091;-73
2023/04/26 02:03:15;;;;;;;6.35;4.20;;;;;;;;;;6238321;28;20061;-73
2023/04/26 02:06:17;;;;;;;7.38;4.90;;;;;;;;;;6238884;28;20057;-74
2023/04/26 02:09:20;;;;;;;7.28;5.35;;;;;;;;;;6238849;28;20053;-73
2023/04/26 02:12:22;;;;;;;7.27;5.97;;;;;;;;;;6234017;28;20107;-73
2023/04/26 02:15:24;;;;;;;11.68;6.40;;;;;;;;;;6239956;28;20053;-74
2023/04/26 02:18:28;;;;;;;8.50;6.35;;;;;;;;;;6239740;28;20054;-73
2023/04/26 02:21:30;;;;;;;7.53;5.70;;;;;;;;;;6240379;28;20129;-73
2023/04/26 02:24:34;;;;;;;8.88;6.28;;;;;;;;;;6240094;28;20060;-73
2023/04/26 02:27:35;;;;;;;7.73;6.33;;;;;;;;;;6234760;28;20050;-73
2023/04/26 02:30:37;;;;;;;9.43;6.78;;;;;;;;;;6237833;28;20668;-73
2023/04/26 02:33:39;;;;;;;8.88;6.60;;;;;;;;;;6236904;28;20053;-75
2023/04/26 02:36:41;;;;;;;9.70;6.60;;;;;;;;;;6235690;28;20241;-73
2023/04/26 02:39:44;;;;;;;8.50;6.18;;;;;;;;;;6237329;28;20045;-73
2023/04/26 02:42:46;;;;;;;8.52;6.45;;;;;;;;;;6238901;28;20079;-73
2023/04/26 02:45:47;;;;;;;11.02;7.60;;;;;;;;;;6241751;28;20415;-73
2023/04/26 02:48:50;;;;;;;8.05;6.38;;;;;;;;;;6235327;28;20297;-72
2023/04/26 02:51:52;;;;;;;9.52;7.40;;;;;;;;;;6240886;28;20109;-73
2023/04/26 02:54:55;;;;;;;9.50;6.63;;;;;;;;;;6239163;28;20057;-73
2023/04/26 02:57:57;;;;;;;7.15;6.18;;;;;;;;;;6241101;28;20049;-72
2023/04/26 03:00:59;;;;;;;9.43;6.57;;;;;;;;;;6238601;28;20341;-73
2023/04/26 03:04:03;;;;;;;8.45;6.25;;;;;;;;;;6237304;28;20173;-73
2023/04/26 03:07:05;;;;;;;8.95;6.57;;;;;;;;;;6238237;28;20232;-73
2023/04/26 03:10:09;;;;;;;9.27;6.97;;;;;;;;;;6236106;28;20048;-73
2023/04/26 03:13:11;;;;;;;9.00;7.28;;;;;;;;;;6230103;28;20042;-74
2023/04/26 03:16:19;;;;;;;9.63;7.38;;;;;;;;;;6237448;28;20057;-73
2023/04/26 03:19:21;;;;;;;8.73;7.43;;;;;;;;;;6236844;28;20053;-72
2023/04/26 03:22:22;;;;;;;10.18;6.95;;;;;;;;;;6237873;28;20068;-72
2023/04/26 03:25:29;;;;;;;8.55;6.70;;;;;;;;;;6231684;28;20060;-73
2023/04/26 03:28:31;;;;;;;9.38;6.45;;;;;;;;;;6239308;28;20058;-73
2023/04/26 03:31:37;;;;;;;8.30;6.90;;;;;;;;;;6238925;28;20062;-74
2023/04/26 03:34:40;;;;;;;8.43;6.45;;;;;;;;;;6235386;28;20064;-73
2023/04/26 03:37:42;;;;;;;8.45;6.85;;;;;;;;;;6235560;28;20053;-73
2023/04/26 03:40:45;;;;;;;11.15;7.18;;;;;;;;;;6236728;28;20045;-73
2023/04/26 03:43:47;;;;;;;9.65;7.30;;;;;;;;;;6238646;28;20069;-73
2023/04/26 03:46:48;;;;;;;10.48;6.95;;;;;;;;;;6240194;28;20053;-73
2023/04/26 03:49:50;;;;;;;9.02;7.20;;;;;;;;;;6241367;28;20144;-73
2023/04/26 03:52:52;;;;;;;8.35;6.65;;;;;;;;;;6243636;28;20061;-74
2023/04/26 03:56:06;;;;;;;16.00;6.55;;;;;;;;;;6239163;28;20056;-74
2023/04/26 03:59:08;;;;;;;12.45;6.68;;;;;;;;;;6243239;28;20404;-73
2023/04/26 04:02:10;;;;;;;10.35;7.28;;;;;;;;;;6244913;28;20057;-73
2023/04/26 04:05:15;;;;;;;7.78;6.28;;;;;;;;;;6241910;28;20280;-73
2023/04/26 04:08:16;;;;;;;10.32;7.25;;;;;;;;;;6243801;28;20092;-73
2023/04/26 04:11:20;;;;;;;10.48;7.63;;;;;;;;;;6241178;28;20042;-73
2023/04/26 04:14:22;;;;;;;10.32;6.75;;;;;;;;;;6242243;28;20061;-73
2023/04/26 04:17:23;;;;;;;9.27;6.80;;;;;;;;;;6243017;28;20244;-73
2023/04/26 04:20:25;;;;;;;8.32;6.22;;;;;;;;;;6244740;28;20314;-73
2023/04/26 04:23:27;;;;;;;9.48;6.68;;;;;;;;;;6243903;28;20140;-74
2023/04/26 04:26:33;;;;;;;9.05;6.55;;;;;;;;;;6236826;28;20053;-73
2023/04/26 04:29:35;;;;;;;10.40;6.93;;;;;;;;;;6245165;28;20151;-73
2023/04/26 04:32:38;;;;;;;9.20;6.75;;;;;;;;;;6242246;28;20132;-73
2023/04/26 04:35:42;;;;;;;8.82;6.57;;;;;;;;;;6238539;28;20357;-73
2023/04/26 04:38:44;;;;;;;10.95;7.10;;;;;;;;;;6238031;28;20054;-73
2023/04/26 04:41:47;;;;;;;11.13;7.43;;;;;;;;;;6239453;28;20129;-73
2023/04/26 04:44:50;;;;;;;9.50;7.22;;;;;;;;;;6240216;28;20057;-75
2023/04/26 04:47:52;;;;;;;11.07;6.55;;;;;;;;;;6240089;28;20057;-73
2023/04/26 04:50:54;;;;;;;10.93;7.00;;;;;;;;;;6237554;28;20057;-74
2023/04/26 04:53:57;;;;;;;11.77;7.15;;;;;;;;;;6240030;28;20046;-74
2023/04/26 04:57:01;;;;;;;10.52;7.28;;;;;;;;;;6239061;28;20080;-73
2023/04/26 05:00:09;;;;;;;13.80;7.20;;;;;;;;;;6240984;28;20053;-73
2023/04/26 05:03:10;;;;;;;11.27;7.40;;;;;;;;;;6239238;28;20050;-73
2023/04/26 05:06:12;;;;;;;10.57;7.15;;;;;;;;;;6240407;28;20053;-73
2023/04/26 05:09:14;;;;;;;10.30;7.35;;;;;;;;;;6238031;28;20077;-74
2023/04/26 05:12:17;;;;;;;12.20;7.75;;;;;;;;;;6242533;28;20260;-74
2023/04/26 05:15:18;;;;;;;11.48;7.35;;;;;;;;;;6240833;28;20058;-73
2023/04/26 05:18:20;;;;;;;15.10;8.55;;;;;;;;;;6243230;28;20053;-72
2023/04/26 05:21:22;;;;;;;10.25;7.70;;;;;;;;;;6241551;28;20057;-73
2023/04/26 05:24:24;;;;;;;10.35;7.03;;;;;;;;;;6241898;28;20151;-74
2023/04/26 05:27:28;;;;;;;10.35;7.45;;;;;;;;;;6239350;28;20059;-71
2023/04/26 05:30:30;;;;;;;14.30;7.43;;;;;;;;;;6241987;28;20121;-72
2023/04/26 05:33:31;;;;;;;12.00;7.30;;;;;;;;;;6241287;28;20045;-72
2023/04/26 05:36:33;;;;;;;12.30;7.80;;;;;;;;;;6239549;28;20050;-72
2023/04/26 05:39:34;;;;;;;17.95;7.97;;;;;;;;;;6236538;28;20199;-71
2023/04/26 05:42:38;;;;;;;13.50;8.15;;;;;;;;;;6237747;28;20079;-71
2023/04/26 05:45:40;;;;;;;9.87;8.03;;;;;;;;;;6238976;28;20063;-73
2023/04/26 05:48:41;;;;;;;11.40;8.50;;;;;;;;;;6237471;28;20053;-72
2023/04/26 05:51:43;;;;;;;10.80;7.95;;;;;;;;;;6240723;28;20045;-71
2023/04/26 05:54:45;;;;;;;12.80;8.55;;;;;;;;;;6238618;28;20233;-71
2023/04/26 05:57:48;;;;;;;11.88;8.45;;;;;;;;;;6238317;28;20288;-72
2023/04/26 06:00:49;;;;;;;11.48;8.43;;;;;;;;;;6235196;28;20046;-72
2023/04/26 06:03:51;;;;;;;13.07;9.18;;;;;;;;;;6237037;28;20065;-71
2023/04/26 06:06:53;;;;;;;13.50;10.20;;;;;;;;;;6241716;28;20053;-71
2023/04/26 06:09:55;;;;;;;12.70;9.15;;;;;;;;;;6240252;28;20053;-71
2023/04/26 06:12:58;;;;;;;12.43;9.23;;;;;;;;;;6238957;28;20240;-75
2023/04/26 06:16:00;;;;;;;13.80;9.32;;;;;;;;;;6236584;28;20238;-71
2023/04/26 06:19:01;;;;;;;9.57;7.68;;;;;;;;;;6239127;28;20100;-72
2023/04/26 06:22:03;;;;;;;12.13;9.00;;;;;;;;;;6236902;28;20400;-71
2023/04/26 06:25:06;;;;;;;13.48;9.00;;;;;;;;;;6237589;28;20061;-71
2023/04/26 06:28:09;;;;;;;11.35;8.85;;;;;;;;;;6238236;28;20049;-71
2023/04/26 06:31:11;;;;;;;11.93;6.80;;;;;;;;;;6238803;28;20317;-71
2023/04/26 06:34:13;;;;;;;9.48;6.38;;;;;;;;;;6238299;28;20060;-71
2023/04/26 06:37:15;;;;;;;11.07;7.22;;;;;;;;;;6238117;28;20091;-71
2023/04/26 06:40:17;;;;;;;9.02;6.63;;;;;;;;;;6236194;28;20116;-72
2023/04/26 06:43:20;;;;;;;8.10;6.22;;;;;;;;;;6237229;28;20056;-71
2023/04/26 06:46:22;;;;;;;10.70;6.40;;;;;;;;;;6238808;28;20139;-72
2023/04/26 06:49:24;;;;;;;10.50;6.50;;;;;;;;;;6237734;28;20325;-72
2023/04/26 06:52:26;;;;;;;14.80;6.40;;;;;;;;;;6239286;28;20124;-71
2023/04/26 06:55:27;;;;;;;8.32;5.15;;;;;;;;;;6237721;28;20061;-71
2023/04/26 06:58:30;;;;;;;7.65;5.30;;;;;;;;;;6238282;28;20213;-72
2023/04/26 07:01:34;;;;;;;8.00;5.22;;;;;;;;;;6237865;28;20054;-74
2023/04/26 07:04:35;;;;;;;6.93;5.30;;;;;;;;;;6238935;28;20064;-73
2023/04/26 07:07:37;;;;;;;9.15;5.70;;;;;;;;;;6238432;28;20338;-71
2023/04/26 07:10:39;;;;;;;7.57;4.95;;;;;;;;;;6239094;28;20057;-72
2023/04/26 07:13:42;;;;;;;6.80;4.90;;;;;;;;;;6237875;28;20057;-71
2023/04/26 07:16:44;;;;;;;9.13;5.10;;;;;;;;;;6237277;28;20230;-72
2023/04/26 07:19:46;;;;;;;6.80;4.88;;;;;;;;;;6238121;28;20080;-71
2023/04/26 07:22:48;;;;;;;6.47;4.70;;;;;;;;;;6239172;28;20061;-71
2023/04/26 07:25:49;;;;;;;7.45;5.20;;;;;;;;;;6243127;28;20107;-72
2023/04/26 07:28:52;;;;;;;7.13;5.35;;;;;;;;;;6241138;28;20120;-72
2023/04/26 07:31:55;;;;;;;8.77;5.60;;;;;;;;;;6244156;28;20061;-71
2023/04/26 07:34:57;;;;;;;9.55;5.68;;;;;;;;;;6244108;28;20484;-71
2023/04/26 07:37:59;;;;;;;9.80;5.72;;;;;;;;;;6240218;28;20049;-71
2023/04/26 07:41:01;;;;;;;7.38;5.82;;;;;;;;;;6241013;28;20084;-72
2023/04/26 07:44:04;;;;;;;8.98;6.15;;;;;;;;;;6242306;28;20060;-71
2023/04/26 07:47:11;;;;;;;7.13;5.45;;;;;;;;;;6243965;28;20341;-72
2023/04/26 07:50:13;;;;;;;8.60;6.13;;;;;;;;;;6241308;28;20049;-72
2023/04/26 07:53:15;;;;;;;7.85;6.05;;;;;;;;;;6241290;28;20058;-74
2023/04/26 07:56:17;;;;;;;11.13;5.90;;;;;;;;;;6244904;28;20909;-72
2023/04/26 07:59:20;;;;;;;8.23;5.60;;;;;;;;;;6241107;28;20084;-74
2023/04/26 08:02:21;;;;;;;10.00;5.80;;;;;;;;;;6243187;28;20135;-72
2023/04/26 08:05:23;;;;;;;7.88;6.03;;;;;;;;;;6242562;28;20140;-72
2023/04/26 08:08:25;;;;;;;8.73;6.00;;;;;;;;;;6242496;28;20057;-72
2023/04/26 08:11:27;;;;;;;9.30;5.32;;;;;;;;;;6241247;28;20053;-74
2023/04/26 08:14:30;;;;;;;6.88;5.13;;;;;;;;;;6244906;28;20057;-72
2023/04/26 08:17:32;;;;;;;7.60;5.37;;;;;;;;;;6241644;28;20053;-73
2023/04/26 08:20:34;;;;;;;6.07;4.72;;;;;;;;;;6243758;28;20484;-72
2023/04/26 08:23:36;;;;;;;6.03;4.00;;;;;;;;;;6242802;28;20057;-72
2023/04/26 08:26:38;;;;;;;4.45;2.92;;;;;;;;;;6240391;28;20053;-73
2023/04/26 08:29:41;;;;;;;7.18;4.10;;;;;;;;;;6242767;28;20112;-71
2023/04/26 08:32:44;;;;;;;4.97;3.25;;;;;;;;;;6245183;28;20053;-72
2023/04/26 08:35:46;;;;;;;5.95;3.47;;;;;;;;;;6243561;28;20072;-72
2023/04/26 08:38:47;;;;;;;5.90;4.47;;;;;;;;;;6242018;28;20057;-73
2023/04/26 08:41:53;;;;;;;44.15;26.33;;;;;;;;;;6241839;28;20041;-73
2023/04/26 08:45:00;;;;;;;95.25;51.00;;;;;;;;;;6243867;28;20435;-74
2023/04/26 08:48:07;;;;;;;15.80;9.07;;;;;;;;;;6241935;28;20045;-74
2023/04/26 08:51:13;;;;;;;52.53;32.53;;;;;;;;;;6239147;28;20061;-74
2023/04/26 08:54:16;;;;;;;37.97;22.73;;;;;;;;;;6244812;28;20064;-73
2023/04/26 08:57:20;;;;;;;11.40;8.70;;;;;;;;;;6237641;28;20053;-72
2023/04/26 09:00:25;;;;;;;6.07;4.10;;;;;;;;;;6243012;28;20058;-72
2023/04/26 09:03:27;;;;;;;7.68;4.10;;;;;;;;;;6240179;28;20084;-72
2023/04/26 09:06:30;;;;;;;6.30;3.35;;;;;;;;;;6243690;28;20080;-73
2023/04/26 09:09:36;;;;;;;7.97;3.55;;;;;;;;;;6239640;28;20057;-72
2023/04/26 09:12:38;;;;;;;4.20;3.70;;;;;;;;;;6241903;28;20325;-72
2023/04/26 09:15:41;;;;;;;5.72;3.17;;;;;;;;;;6242445;28;20049;-72
2023/04/26 09:18:51;;;;;;;4.43;2.80;;;;;;;;;;6240362;28;20050;-73
2023/04/26 09:21:52;;;;;;;8.07;2.28;;;;;;;;;;6242897;28;20088;-72
2023/04/26 09:24:54;;;;;;;1.80;1.20;;;;;;;;;;6239407;28;20061;-72
2023/04/26 09:27:56;;;;;;;2.25;0.88;;;;;;;;;;6240695;28;20107;-73
2023/04/26 09:30:59;;;;;;;1.50;1.08;;;;;;;;;;6238116;28;20305;-72
2023/04/26 09:34:01;;;;;;;1.58;1.00;;;;;;;;;;6241452;28;20050;-73
2023/04/26 09:37:03;;;;;;;2.72;1.83;;;;;;;;;;6240022;28;20053;-72
2023/04/26 09:40:10;;;;;;;3.75;3.35;;;;;;;;;;6241463;28;20103;-72
2023/04/26 09:43:13;;;;;;;4.78;3.00;;;;;;;;;;6238105;28;20125;-73
2023/04/26 09:46:22;;;;;;;3.55;2.75;;;;;;;;;;6240087;28;20053;-72
2023/04/26 09:49:26;;;;;;;4.22;2.20;;;;;;;;;;6239376;28;20103;-72
2023/04/26 09:52:27;;;;;;;;;;;;;;;;;;6238998;28;20065;-72
2023/04/26 09:55:30;;;;;;;4.80;3.25;;;;;;;;;;6238909;28;19944;-72
2023/04/26 09:58:32;;;;;;;3.72;2.78;;;;;;;;;;6240455;28;20053;-72
2023/04/26 10:01:35;;;;;;;3.17;1.50;;;;;;;;;;6237812;28;20403;-73
2023/04/26 10:04:37;;;;;;;4.13;1.10;;;;;;;;;;6240450;28;20181;-72
2023/04/26 10:07:40;;;;;;;4.23;2.93;;;;;;;;;;6240602;28;20269;-72
2023/04/26 10:10:42;;;;;;;5.03;2.70;;;;;;;;;;6239000;28;20144;-72
2023/04/26 10:13:44;;;;;;;4.75;3.03;;;;;;;;;;6238039;28;20062;-72
2023/04/26 10:16:48;;;;;;;3.33;3.03;;;;;;;;;;6240421;28;20075;-73
2023/04/26 10:19:55;;;;;;;4.05;3.00;;;;;;;;;;6239161;28;20041;-72
2023/04/26 10:23:00;;;;;;;4.05;2.50;;;;;;;;;;6239189;28;20057;-73
2023/04/26 10:26:02;;;;;;;2.72;2.20;;;;;;;;;;6237748;28;20342;-72
2023/04/26 10:29:03;;;;;;;4.18;2.25;;;;;;;;;;6240309;28;20123;-73
2023/04/26 10:32:15;;;;;;;3.67;2.65;;;;;;;;;;6241708;28;20049;-72
2023/04/26 10:35:18;;;;;;;4.18;2.20;;;;;;;;;;6237285;28;20066;-73
2023/04/26 10:38:19;;;;;;;3.85;2.28;;;;;;;;;;6237620;28;20122;-72
2023/04/26 10:41:31;;;;;;;4.97;2.17;;;;;;;;;;6238957;28;20120;-73
2023/04/26 10:44:40;;;;;;;2.80;2.30;;;;;;;;;;6238046;28;20140;-72
2023/04/26 10:47:43;;;;;;;5.55;2.33;;;;;;;;;;6236546;28;20053;-72
2023/04/26 10:51:11;;;;;;;2.63;1.70;;;;;;;;;;6236094;28;20053;-72
2023/04/26 10:54:13;;;;;;;2.85;1.90;;;;;;;;;;6235418;28;20052;-72
2023/04/26 10:57:15;;;;;;;2.58;1.70;;;;;;;;;;6238561;28;20057;-74
2023/04/26 11:00:19;;;;;;;3.65;2.08;;;;;;;;;;6240853;28;20391;-72
2023/04/26 11:03:23;;;;;;;2.60;1.90;;;;;;;;;;6239278;28;20073;-72
2023/04/26 11:06:25;;;;;;;3.38;2.00;;;;;;;;;;6237379;28;20049;-72
2023/04/26 11:09:35;;;;;;;2.15;1.80;;;;;;;;;;6236499;28;20322;-72
2023/04/26 11:12:36;;;;;;;3.15;1.42;;;;;;;;;;6237719;28;20360;-71
2023/04/26 11:15:38;;;;;;;2.17;1.40;;;;;;;;;;6237452;28;20042;-72
2023/04/26 11:18:42;;;;;;;2.65;1.73;;;;;;;;;;6236504;28;20054;-73
2023/04/26 11:21:44;;;;;;;5.43;1.75;;;;;;;;;;6239100;28;20061;-73
2023/04/26 11:24:46;;;;;;;2.42;1.42;;;;;;;;;;6235156;28;20249;-74
2023/04/26 11:27:48;;;;;;;1.42;1.30;;;;;;;;;;6238401;28;20049;-73
2023/04/26 11:30:50;;;;;;;2.25;1.33;;;;;;;;;;6236539;28;20057;-73
2023/04/26 11:33:53;;;;;;;3.57;1.33;;;;;;;;;;6234845;28;20050;-73
2023/04/26 11:36:54;;;;;;;;;;;;;;;;;;6236553;28;20061;-74
2023/04/26 11:39:57;;;;;;;1.63;1.23;;;;;;;;;;6234754;28;19925;-73
2023/04/26 11:43:01;;;;;;;2.67;1.42;;;;;;;;;;6233281;28;20057;-74
2023/04/26 11:46:04;;;;;;;2.15;1.20;;;;;;;;;;6236012;28;20199;-74
2023/04/26 11:49:08;;;;;;;3.25;1.20;;;;;;;;;;6236193;28;20057;-75
2023/04/26 11:52:10;;;;;;;1.98;1.30;;;;;;;;;;6235942;28;20332;-74
2023/04/26 11:55:11;;;;;;;3.00;1.17;;;;;;;;;;6236755;28;20052;-74
2023/04/26 11:58:14;;;;;;;2.20;1.50;;;;;;;;;;6239326;28;20052;-73
2023/04/26 12:01:22;;;;;;;;;;;;;;;;;;6235803;28;20042;-73
2023/04/26 12:07:50;;;;;;;2.95;1.20;;;;;;;;;;6238693;28;20057;-73
2023/04/26 12:10:51;;;;;;;2.50;1.40;;;;;;;;;;6242384;28;20210;-73
2023/04/26 12:13:53;;;;;;;1.65;1.33;;;;;;;;;;6242216;28;20050;-73
2023/04/26 12:16:55;;;;;;;2.90;1.58;;;;;;;;;;6241330;28;20241;-74
2023/04/26 12:19:58;;;;;;;2.50;1.70;;;;;;;;;;6243308;28;20057;-74
2023/04/26 12:23:05;;;;;;;1.90;1.70;;;;;;;;;;6242795;28;20096;-74
2023/04/26 12:26:09;;;;;;;3.70;1.73;;;;;;;;;;6240627;28;20130;-73
2023/04/26 12:29:11;;;;;;;2.08;1.70;;;;;;;;;;6238806;28;20088;-73
2023/04/26 12:32:13;;;;;;;3.45;1.73;;;;;;;;;;6242775;28;20064;-74
2023/04/26 12:35:16;;;;;;;1.98;1.33;;;;;;;;;;6229393;28;20061;-74
2023/04/26 12:38:18;;;;;;;2.70;1.50;;;;;;;;;;6237654;28;20060;-73
2023/04/26 12:41:21;;;;;;;1.45;1.35;;;;;;;;;;6238547;28;20072;-73
2023/04/26 12:44:23;;;;;;;1.20;0.93;;;;;;;;;;6240752;28;20064;-74
2023/04/26 12:47:25;;;;;;;2.08;1.20;;;;;;;;;;6243330;28;20111;-72
2023/04/26 12:50:29;;;;;;;1.98;1.25;;;;;;;;;;6241022;28;20053;-73
2023/04/26 12:53:31;;;;;;;1.83;1.35;;;;;;;;;;6239909;28;20228;-72
2023/04/26 12:56:42;;;;;;;1.87;1.17;;;;;;;;;;6238061;28;20049;-73
2023/04/26 12:59:44;;;;;;;2.95;1.15;;;;;;;;;;6242667;28;20376;-72
2023/04/26 13:02:46;;;;;;;2.08;0.98;;;;;;;;;;6240150;28;20058;-71
2023/04/26 13:05:52;;;;;;;2.87;1.17;;;;;;;;;;6239293;28;20087;-71
2023/04/26 13:08:54;;;;;;;1.63;1.00;;;;;;;;;;6239985;28;20064;-72
2023/04/26 13:11:56;;;;;;;2.47;0.95;;;;;;;;;;6240834;28;20118;-73
2023/04/26 13:14:58;;;;;;;2.03;0.93;;;;;;;;;;6239908;28;20318;-71
2023/04/26 13:18:03;;;;;;;1.40;0.95;;;;;;;;;;6243595;28;20074;-72
2023/04/26 13:21:06;;;;;;;1.85;0.95;;;;;;;;;;6239934;28;20283;-72
2023/04/26 13:24:08;;;;;;;1.83;1.10;;;;;;;;;;6239219;28;20084;-71
2023/04/26 13:27:10;;;;;;;1.88;0.98;;;;;;;;;;6239131;28;20105;-72
2023/04/26 13:30:13;;;;;;;1.93;1.03;;;;;;;;;;6239675;28;20052;-72
2023/04/26 13:33:15;;;;;;;;;;;;;;;;;;6242181;28;20673;-72
2023/04/26 13:36:18;;;;;;;3.50;1.00;;;;;;;;;;6238709;28;19948;-71
2023/04/26 13:39:20;;;;;;;3.25;1.20;;;;;;;;;;6236790;28;20055;-71
2023/04/26 13:42:22;;;;;;;2.63;1.00;;;;;;;;;;6238667;28;20073;-72
2023/04/26 13:45:32;;;;;;;1.70;1.10;;;;;;;;;;6239864;28;20341;-71
2023/04/26 13:48:34;;;;;;;2.10;1.10;;;;;;;;;;6239210;28;20063;-71
2023/04/26 13:51:38;;;;;;;1.45;0.93;;;;;;;;;;6235847;28;20099;-71
2023/04/26 13:54:39;;;;;;;2.65;1.30;;;;;;;;;;6242188;28;20111;-72
2023/04/26 13:57:41;;;;;;;1.97;1.10;;;;;;;;;;6239266;28;20234;-73
2023/04/26 14:00:43;;;;;;;3.38;1.60;;;;;;;;;;6239467;28;20107;-71
2023/04/26 14:03:44;;;;;;;2.00;1.40;;;;;;;;;;6239950;28;20042;-72
2023/04/26 14:06:48;;;;;;;3.47;1.65;;;;;;;;;;6236850;28;20115;-72
2023/04/26 14:09:50;;;;;;;2.60;1.77;;;;;;;;;;6239982;28;20063;-72
2023/04/26 14:12:52;;;;;;;;;;;;;;;;;;6238359;28;20060;-72
2023/04/26 14:15:54;;;;;;;2.50;1.48;;;;;;;;;;6235068;28;19925;-71
2023/04/26 14:19:04;;;;;;;419.55;275.42;;;;;;;;;;6240182;28;20049;-70
2023/04/26 14:22:08;;;;;;;42.78;28.00;;;;;;;;;;6239393;28;20262;-71
2023/04/26 14:25:10;;;;;;;24.45;16.38;;;;;;;;;;6239905;28;20130;-69
2023/04/26 14:28:15;;;;;;;13.03;10.23;;;;;;;;;;6238957;28;20136;-69
2023/04/26 14:31:18;;;;;;;99.10;65.88;;;;;;;;;;6239052;28;20167;-69
2023/04/26 14:34:20;;;;;;;4.18;3.03;;;;;;;;;;6236855;28;20037;-69
2023/04/26 14:37:23;;;;;;;6.05;4.20;;;;;;;;;;6237182;28;20092;-70
2023/04/26 14:40:25;;;;;;;5.45;2.10;;;;;;;;;;6236957;28;20210;-69
2023/04/26 14:43:27;;;;;;;3.22;2.03;;;;;;;;;;6236507;28;20119;-69
2023/04/26 14:46:29;;;;;;;2.65;1.55;;;;;;;;;;6237568;28;20053;-68
2023/04/26 14:49:31;;;;;;;5.30;1.80;;;;;;;;;;6235024;28;20165;-69
2023/04/26 14:52:37;;;;;;;2.20;1.73;;;;;;;;;;6238715;28;20045;-69
2023/04/26 14:55:39;;;;;;;3.13;1.65;;;;;;;;;;6236996;28;20248;-68
2023/04/26 14:58:41;;;;;;;4.88;1.40;;;;;;;;;;6228763;28;20049;-69
2023/04/26 15:01:43;;;;;;;3.40;1.58;;;;;;;;;;6235074;28;20058;-69
2023/04/26 15:04:44;;;;;;;3.80;1.93;;;;;;;;;;6242071;28;20108;-69
2023/04/26 15:07:47;;;;;;;5.28;2.45;;;;;;;;;;6227299;28;20046;-69
2023/04/26 15:10:50;;;;;;;3.08;2.10;;;;;;;;;;6235531;28;20061;-73
2023/04/26 15:13:51;;;;;;;2.97;1.88;;;;;;;;;;6235605;28;20072;-72
2023/04/26 15:16:53;;;;;;;2.60;1.80;;;;;;;;;;6238979;28;20049;-72
2023/04/26 15:19:55;;;;;;;3.17;1.60;;;;;;;;;;6234768;28;20256;-74
2023/04/26 15:22:58;;;;;;;2.00;1.80;;;;;;;;;;6239864;28;20057;-72
2023/04/26 15:26:01;;;;;;;3.72;2.10;;;;;;;;;;6235654;28;20060;-72
2023/04/26 15:29:03;;;;;;;3.47;2.00;;;;;;;;;;6235242;28;20248;-73
2023/04/26 15:32:05;;;;;;;7.53;1.90;;;;;;;;;;6236749;28;20068;-72
2023/04/26 15:35:08;;;;;;;2.30;1.42;;;;;;;;;;6239074;28;20823;-73
2023/04/26 15:38:10;;;;;;;;;;;;;;;;;;6236142;28;20046;-74
2023/04/26 15:41:12;;;;;;;1.83;1.50;;;;;;;;;;6238413;28;19925;-73
2023/04/26 15:44:14;;;;;;;1.88;1.42;;;;;;;;;;6236116;28;20338;-72
2023/04/26 15:47:16;;;;;;;3.58;1.55;;;;;;;;;;6240131;28;20092;-72
2023/04/26 15:50:17;;;;;;;2.97;1.95;;;;;;;;;;6242075;28;20054;-72
2023/04/26 15:53:21;;;;;;;4.00;1.70;;;;;;;;;;6242214;28;20079;-73
2023/04/26 15:56:23;;;;;;;2.65;1.73;;;;;;;;;;6243102;28;20057;-73
2023/04/26 15:59:25;;;;;;;2.75;1.58;;;;;;;;;;6241460;28;20060;-72
2023/04/26 16:02:26;;;;;;;2.13;1.42;;;;;;;;;;6246463;28;20069;-72
2023/04/26 16:05:30;;;;;;;3.25;1.50;;;;;;;;;;6242164;28;20917;-72
2023/04/26 16:08:33;;;;;;;3.97;1.95;;;;;;;;;;6242510;28;20195;-72
2023/04/26 16:11:35;;;;;;;2.83;2.00;;;;;;;;;;6242297;28;20341;-72
2023/04/26 16:14:37;;;;;;;5.38;1.92;;;;;;;;;;6241679;28;20053;-74
2023/04/26 16:17:39;;;;;;;2.55;1.67;;;;;;;;;;6243235;28;20058;-73
2023/04/26 16:20:41;;;;;;;2.33;1.80;;;;;;;;;;6244758;28;20053;-71
2023/04/26 16:23:44;;;;;;;5.70;2.15;;;;;;;;;;6241200;28;20048;-72
2023/04/26 16:26:54;;;;;;;3.03;1.95;;;;;;;;;;6240785;28;20392;-72
2023/04/26 16:29:57;;;;;;;4.22;2.03;;;;;;;;;;6239868;28;20095;-72
2023/04/26 16:32:59;;;;;;;3.63;2.20;;;;;;;;;;6230708;28;20237;-72
2023/04/26 16:36:01;;;;;;;5.78;3.03;;;;;;;;;;6238390;28;20073;-72
2023/04/26 16:39:07;;;;;;;5.80;2.65;;;;;;;;;;6239815;28;20046;-72
2023/04/26 16:42:09;;;;;;;7.22;2.08;;;;;;;;;;6240799;28;20203;-72
2023/04/26 16:45:12;;;;;;;3.63;2.15;;;;;;;;;;6237971;28;20155;-72
2023/04/26 16:48:13;;;;;;;8.00;2.50;;;;;;;;;;6243281;28;20069;-72
2023/04/26 16:51:15;;;;;;;4.85;2.50;;;;;;;;;;6239178;28;20055;-72
2023/04/26 16:54:19;;;;;;;5.78;1.88;;;;;;;;;;6240429;28;20053;-72
2023/04/26 16:57:21;;;;;;;2.20;1.60;;;;;;;;;;6236829;28;20049;-72
2023/04/26 17:00:23;;;;;;;3.85;2.28;;;;;;;;;;6240370;28;20124;-72
2023/04/26 17:03:25;;;;;;;3.58;2.10;;;;;;;;;;6239467;28;20265;-72
2023/04/26 17:06:27;;;;;;;3.55;2.13;;;;;;;;;;6240963;28;20061;-73
2023/04/26 17:09:30;;;;;;;6.00;2.17;;;;;;;;;;6239153;28;20360;-72
2023/04/26 17:12:32;;;;;;;6.18;2.20;;;;;;;;;;6237558;28;20058;-74
2023/04/26 17:15:35;;;;;;;5.05;2.60;;;;;;;;;;6237325;28;20056;-71
2023/04/26 17:18:37;;;;;;;3.63;2.53;;;;;;;;;;6239332;28;20053;-70
2023/04/26 17:21:39;;;;;;;7.40;2.88;;;;;;;;;;6238687;28;20057;-74
2023/04/26 17:24:42;;;;;;;4.07;2.30;;;;;;;;;;6240297;28;20232;-74
2023/04/26 17:27:44;;;;;;;;;;;;;;;;;;6238154;28;20046;-73
2023/04/26 17:30:55;;;;;;;5.05;2.22;;;;;;;;;;6236170;28;19932;-74
2023/04/26 17:33:57;;;;;;;4.88;2.10;;;;;;;;;;6237798;28;20053;-74
2023/04/26 17:37:00;;;;;;;3.25;2.33;;;;;;;;;;6236373;28;20072;-72
2023/04/26 17:40:06;;;;;;;4.13;2.35;;;;;;;;;;6237704;28;20061;-73
2023/04/26 17:43:53;;;;;;;2.95;1.95;;;;;;;;;;6237857;28;20053;-75
2023/04/26 17:47:17;;;;;;;5.18;2.22;;;;;;;;;;6176613;28;20053;-73
2023/04/26 17:50:22;;;;;;;3.88;2.10;;;;;;;;;;6237291;28;20072;-72
2023/04/26 17:53:25;;;;;;;3.45;2.55;;;;;;;;;;6238873;28;20073;-72
2023/04/26 17:56:29;;;;;;;6.00;2.42;;;;;;;;;;6242269;28;20057;-73
2023/04/26 17:59:31;;;;;;;4.30;2.60;;;;;;;;;;6239367;28;20102;-73
2023/04/26 18:02:34;;;;;;;4.07;2.50;;;;;;;;;;6238206;28;20053;-73
2023/04/26 18:05:36;;;;;;;4.38;2.80;;;;;;;;;;6239149;28;20065;-73
2023/04/26 18:09:17;;;;;;;3.47;2.33;;;;;;;;;;6234577;28;20053;-73
2023/04/26 18:12:20;;;;;;;4.10;2.17;;;;;;;;;;6234900;28;20037;-74
2023/04/26 18:15:23;;;;;;;6.03;2.78;;;;;;;;;;6239385;28;20100;-74
2023/04/26 18:18:27;;;;;;;4.28;2.80;;;;;;;;;;6237607;28;20134;-73
2023/04/26 18:21:30;;;;;;;3.92;2.58;;;;;;;;;;6227667;28;20124;-73